sensor_id;sensor_type;location;lat;lon;timestamp;temperature;humidity
21393;DHT22;10857;52.228;21.026;2023-03-15T00:00:51;10.40;99.90
21393;DHT22;10857;52.228;21.026;2023-03-15T00:03:20;10.40;99.90
21393;DHT22;10857;52.228;21.026;2023-03-15T00:05:48;10.40;99.90
21393;DHT22;10857;52.228;21.026;2023-03-15T00:08:15;10.40;99.90
21393;DHT22;10857;52.228;21.026;2023-03-15T00:10:44;10.40;99.90
21393;DHT22;10857;52.228;21.026;2023-03-15T00:13:12;10.40;99.90
21393;DHT22;10857;52.228;21.026;2023-03-15T00:15:47;10.40;99.90
21393;DHT22;10857;52.228;21.026;2023-03-15T00:18:16;10.50;99.90
21393;DHT22;10857;52.228;21.026;2023-03-15T00:20:44;10.40;99.90
21393;DHT22;10857;52.228;21.026;2023-03-15T00:23:11;10.40;99.90
21393;DHT22;10857;52.228;21.026;2023-03-15T00:25:38;10.30;99.90
21393;DHT22;10857;52.228;21.026;2023-03-15T00:28:05;10.30;99.90
21393;DHT22;10857;52.228;21.026;2023-03-15T00:30:32;10.30;99.90
21393;DHT22;10857;52.228;21.026;2023-03-15T00:32:59;10.40;99.90
21393;DHT22;10857;52.228;21.026;2023-03-15T00:35:26;10.40;99.90
21393;DHT22;10857;52.228;21.026;2023-03-15T00:37:55;10.40;99.90
21393;DHT22;10857;52.228;21.026;2023-03-15T00:40:22;10.40;99.90
21393;DHT22;10857;52.228;21.026;2023-03-15T00:42:50;10.40;99.90
21393;DHT22;10857;52.228;21.026;2023-03-15T00:45:19;10.20;99.90
21393;DHT22;10857;52.228;21.026;2023-03-15T00:47:51;10.10;99.90
21393;DHT22;10857;52.228;21.026;2023-03-15T00:50:20;9.90;99.90
21393;DHT22;10857;52.228;21.026;2023-03-15T00:52:47;8.80;99.90
21393;DHT22;10857;52.228;21.026;2023-03-15T00:55:17;8.00;99.90
21393;DHT22;10857;52.228;21.026;2023-03-15T00:57:47;7.20;99.90
21393;DHT22;10857;52.228;21.026;2023-03-15T01:00:18;6.70;99.90
21393;DHT22;10857;52.228;21.026;2023-03-15T01:02:46;6.30;99.90
21393;DHT22;10857;52.228;21.026;2023-03-15T01:05:13;6.20;99.90
21393;DHT22;10857;52.228;21.026;2023-03-15T01:07:40;5.80;99.90
21393;DHT22;10857;52.228;21.026;2023-03-15T01:10:07;5.80;99.90
21393;DHT22;10857;52.228;21.026;2023-03-15T01:12:34;5.70;99.90
21393;DHT22;10857;52.228;21.026;2023-03-15T01:15:04;5.60;99.90
21393;DHT22;10857;52.228;21.026;2023-03-15T01:17:32;5.30;99.90
21393;DHT22;10857;52.228;21.026;2023-03-15T01:20:00;5.20;99.90
21393;DHT22;10857;52.228;21.026;2023-03-15T01:22:27;5.20;99.90
21393;DHT22;10857;52.228;21.026;2023-03-15T01:24:54;5.20;99.90
21393;DHT22;10857;52.228;21.026;2023-03-15T01:27:21;4.80;99.90
21393;DHT22;10857;52.228;21.026;2023-03-15T01:29:52;4.60;99.90
21393;DHT22;10857;52.228;21.026;2023-03-15T01:32:19;4.50;99.90
21393;DHT22;10857;52.228;21.026;2023-03-15T01:34:46;4.50;99.90
21393;DHT22;10857;52.228;21.026;2023-03-15T01:37:13;4.40;99.90
21393;DHT22;10857;52.228;21.026;2023-03-15T01:39:42;4.40;99.90
21393;DHT22;10857;52.228;21.026;2023-03-15T01:42:10;4.30;99.90
21393;DHT22;10857;52.228;21.026;2023-03-15T01:47:56;4.20;99.90
21393;DHT22;10857;52.228;21.026;2023-03-15T01:50:23;4.20;99.90
21393;DHT22;10857;52.228;21.026;2023-03-15T01:52:51;4.10;99.90
21393;DHT22;10857;52.228;21.026;2023-03-15T01:55:19;4.10;99.90
21393;DHT22;10857;52.228;21.026;2023-03-15T01:58:06;4.00;99.90
21393;DHT22;10857;52.228;21.026;2023-03-15T02:00:38;4.00;99.90
21393;DHT22;10857;52.228;21.026;2023-03-15T02:03:22;4.00;99.90
21393;DHT22;10857;52.228;21.026;2023-03-15T02:05:57;3.90;99.90
21393;DHT22;10857;52.228;21.026;2023-03-15T02:08:48;3.90;99.90
21393;DHT22;10857;52.228;21.026;2023-03-15T02:11:18;4.00;99.90
21393;DHT22;10857;52.228;21.026;2023-03-15T02:13:48;3.90;99.90
21393;DHT22;10857;52.228;21.026;2023-03-15T02:16:16;3.90;99.90
21393;DHT22;10857;52.228;21.026;2023-03-15T02:18:50;4.00;99.90
21393;DHT22;10857;52.228;21.026;2023-03-15T02:23:47;4.00;99.90
21393;DHT22;10857;52.228;21.026;2023-03-15T02:26:28;4.00;99.90
21393;DHT22;10857;52.228;21.026;2023-03-15T02:28:58;4.00;99.90
21393;DHT22;10857;52.228;21.026;2023-03-15T02:31:26;4.10;99.90
21393;DHT22;10857;52.228;21.026;2023-03-15T02:33:55;4.00;99.90
21393;DHT22;10857;52.228;21.026;2023-03-15T02:36:27;4.00;99.90
21393;DHT22;10857;52.228;21.026;2023-03-15T02:38:55;4.00;99.90
21393;DHT22;10857;52.228;21.026;2023-03-15T02:41:41;4.00;99.90
21393;DHT22;10857;52.228;21.026;2023-03-15T02:46:54;4.00;99.90
21393;DHT22;10857;52.228;21.026;2023-03-15T02:49:25;4.00;99.90
21393;DHT22;10857;52.228;21.026;2023-03-15T02:51:53;4.00;99.90
21393;DHT22;10857;52.228;21.026;2023-03-15T02:54:20;4.10;99.90
21393;DHT22;10857;52.228;21.026;2023-03-15T02:56:47;4.10;99.90
21393;DHT22;10857;52.228;21.026;2023-03-15T02:59:14;4.00;99.90
21393;DHT22;10857;52.228;21.026;2023-03-15T03:01:41;4.00;99.90
21393;DHT22;10857;52.228;21.026;2023-03-15T03:04:12;4.10;99.90
21393;DHT22;10857;52.228;21.026;2023-03-15T03:06:39;4.00;99.90
21393;DHT22;10857;52.228;21.026;2023-03-15T03:09:10;4.10;99.90
21393;DHT22;10857;52.228;21.026;2023-03-15T03:11:38;4.10;99.90
21393;DHT22;10857;52.228;21.026;2023-03-15T03:14:05;4.00;99.90
21393;DHT22;10857;52.228;21.026;2023-03-15T03:16:32;4.00;99.90
21393;DHT22;10857;52.228;21.026;2023-03-15T03:18:59;4.00;99.90
21393;DHT22;10857;52.228;21.026;2023-03-15T03:21:29;4.00;99.90
21393;DHT22;10857;52.228;21.026;2023-03-15T03:23:56;4.00;99.90
21393;DHT22;10857;52.228;21.026;2023-03-15T03:26:23;4.00;99.90
21393;DHT22;10857;52.228;21.026;2023-03-15T03:28:54;4.10;99.90
21393;DHT22;10857;52.228;21.026;2023-03-15T03:31:25;4.20;99.90
21393;DHT22;10857;52.228;21.026;2023-03-15T03:33:55;4.10;99.90
21393;DHT22;10857;52.228;21.026;2023-03-15T03:36:23;4.10;99.90
21393;DHT22;10857;52.228;21.026;2023-03-15T03:38:51;4.10;99.90
21393;DHT22;10857;52.228;21.026;2023-03-15T03:41:20;4.20;99.90
21393;DHT22;10857;52.228;21.026;2023-03-15T03:43:47;4.20;99.90
21393;DHT22;10857;52.228;21.026;2023-03-15T03:46:15;4.20;99.90
21393;DHT22;10857;52.228;21.026;2023-03-15T03:48:47;4.30;99.90
21393;DHT22;10857;52.228;21.026;2023-03-15T03:51:14;4.20;99.90
21393;DHT22;10857;52.228;21.026;2023-03-15T03:53:41;4.30;99.90
21393;DHT22;10857;52.228;21.026;2023-03-15T03:56:08;4.20;99.90
21393;DHT22;10857;52.228;21.026;2023-03-15T03:58:36;4.20;99.90
21393;DHT22;10857;52.228;21.026;2023-03-15T04:01:11;4.20;99.90
21393;DHT22;10857;52.228;21.026;2023-03-15T04:03:39;4.20;99.90
21393;DHT22;10857;52.228;21.026;2023-03-15T04:06:13;4.20;99.90
21393;DHT22;10857;52.228;21.026;2023-03-15T04:08:43;4.30;99.90
21393;DHT22;10857;52.228;21.026;2023-03-15T04:11:15;4.30;99.90
21393;DHT22;10857;52.228;21.026;2023-03-15T04:13:48;4.30;99.90
21393;DHT22;10857;52.228;21.026;2023-03-15T04:16:15;4.30;99.90
21393;DHT22;10857;52.228;21.026;2023-03-15T04:18:55;4.30;99.90
21393;DHT22;10857;52.228;21.026;2023-03-15T04:21:23;4.30;99.90
21393;DHT22;10857;52.228;21.026;2023-03-15T04:23:55;4.30;99.90
21393;DHT22;10857;52.228;21.026;2023-03-15T04:26:50;4.20;99.90
21393;DHT22;10857;52.228;21.026;2023-03-15T04:29:43;4.20;99.90
21393;DHT22;10857;52.228;21.026;2023-03-15T04:32:33;4.30;99.90
21393;DHT22;10857;52.228;21.026;2023-03-15T04:35:20;4.40;99.90
21393;DHT22;10857;52.228;21.026;2023-03-15T04:37:59;4.30;99.90
21393;DHT22;10857;52.228;21.026;2023-03-15T04:40:44;4.20;99.90
21393;DHT22;10857;52.228;21.026;2023-03-15T04:43:21;4.30;99.90
21393;DHT22;10857;52.228;21.026;2023-03-15T04:46:10;4.30;99.90
21393;DHT22;10857;52.228;21.026;2023-03-15T04:48:55;4.20;99.90
21393;DHT22;10857;52.228;21.026;2023-03-15T04:51:51;4.30;99.90
21393;DHT22;10857;52.228;21.026;2023-03-15T04:54:30;4.30;99.90
21393;DHT22;10857;52.228;21.026;2023-03-15T04:57:23;4.20;99.90
21393;DHT22;10857;52.228;21.026;2023-03-15T05:00:11;4.20;99.90
21393;DHT22;10857;52.228;21.026;2023-03-15T05:02:58;4.20;99.90
21393;DHT22;10857;52.228;21.026;2023-03-15T05:05:44;4.20;99.90
21393;DHT22;10857;52.228;21.026;2023-03-15T05:08:31;4.10;99.90
21393;DHT22;10857;52.228;21.026;2023-03-15T05:11:36;4.10;99.90
21393;DHT22;10857;52.228;21.026;2023-03-15T05:14:08;4.00;99.90
21393;DHT22;10857;52.228;21.026;2023-03-15T05:16:45;4.20;99.90
21393;DHT22;10857;52.228;21.026;2023-03-15T05:19:21;4.20;99.90
21393;DHT22;10857;52.228;21.026;2023-03-15T05:22:13;4.20;99.90
21393;DHT22;10857;52.228;21.026;2023-03-15T05:25:03;4.20;99.90
21393;DHT22;10857;52.228;21.026;2023-03-15T05:27:38;4.30;99.90
21393;DHT22;10857;52.228;21.026;2023-03-15T05:30:28;4.20;99.90
21393;DHT22;10857;52.228;21.026;2023-03-15T05:33:11;4.20;99.90
21393;DHT22;10857;52.228;21.026;2023-03-15T05:35:54;4.20;99.90
21393;DHT22;10857;52.228;21.026;2023-03-15T05:38:54;4.10;99.90
21393;DHT22;10857;52.228;21.026;2023-03-15T05:41:38;4.10;99.90
21393;DHT22;10857;52.228;21.026;2023-03-15T05:44:23;4.10;99.90
21393;DHT22;10857;52.228;21.026;2023-03-15T05:47:02;4.10;99.90
21393;DHT22;10857;52.228;21.026;2023-03-15T05:49:45;4.00;99.90
21393;DHT22;10857;52.228;21.026;2023-03-15T05:52:31;4.10;99.90
21393;DHT22;10857;52.228;21.026;2023-03-15T05:55:10;4.10;99.90
21393;DHT22;10857;52.228;21.026;2023-03-15T05:58:16;4.10;99.90
21393;DHT22;10857;52.228;21.026;2023-03-15T06:01:22;4.00;99.90
21393;DHT22;10857;52.228;21.026;2023-03-15T06:04:08;3.90;99.90
21393;DHT22;10857;52.228;21.026;2023-03-15T06:06:35;4.00;99.90
21393;DHT22;10857;52.228;21.026;2023-03-15T06:09:05;4.00;99.90
21393;DHT22;10857;52.228;21.026;2023-03-15T06:11:33;4.00;99.90
21393;DHT22;10857;52.228;21.026;2023-03-15T06:14:00;4.00;99.90
21393;DHT22;10857;52.228;21.026;2023-03-15T06:16:36;4.00;99.90
21393;DHT22;10857;52.228;21.026;2023-03-15T06:19:03;3.90;99.90
21393;DHT22;10857;52.228;21.026;2023-03-15T06:21:30;3.90;99.90
21393;DHT22;10857;52.228;21.026;2023-03-15T06:23:58;3.80;99.90
21393;DHT22;10857;52.228;21.026;2023-03-15T06:26:25;3.90;99.90
21393;DHT22;10857;52.228;21.026;2023-03-15T06:28:57;4.00;99.90
21393;DHT22;10857;52.228;21.026;2023-03-15T06:31:24;3.70;99.90
21393;DHT22;10857;52.228;21.026;2023-03-15T06:33:59;3.70;99.90
21393;DHT22;10857;52.228;21.026;2023-03-15T06:36:28;3.80;99.90
21393;DHT22;10857;52.228;21.026;2023-03-15T06:38:57;3.90;99.90
21393;DHT22;10857;52.228;21.026;2023-03-15T06:41:24;3.90;99.90
21393;DHT22;10857;52.228;21.026;2023-03-15T06:43:56;4.00;99.90
21393;DHT22;10857;52.228;21.026;2023-03-15T06:46:23;3.90;99.90
21393;DHT22;10857;52.228;21.026;2023-03-15T06:48:50;3.90;99.90
21393;DHT22;10857;52.228;21.026;2023-03-15T06:51:19;3.90;99.90
21393;DHT22;10857;52.228;21.026;2023-03-15T06:53:46;3.90;99.90
21393;DHT22;10857;52.228;21.026;2023-03-15T06:56:14;3.80;99.90
21393;DHT22;10857;52.228;21.026;2023-03-15T06:58:40;3.90;99.90
21393;DHT22;10857;52.228;21.026;2023-03-15T07:01:14;3.90;99.90
21393;DHT22;10857;52.228;21.026;2023-03-15T07:03:41;3.90;99.90
21393;DHT22;10857;52.228;21.026;2023-03-15T07:06:08;3.90;99.90
21393;DHT22;10857;52.228;21.026;2023-03-15T07:08:35;3.90;99.90
21393;DHT22;10857;52.228;21.026;2023-03-15T07:11:02;3.80;99.90
21393;DHT22;10857;52.228;21.026;2023-03-15T07:13:29;3.80;99.90
21393;DHT22;10857;52.228;21.026;2023-03-15T07:15:56;3.70;99.90
21393;DHT22;10857;52.228;21.026;2023-03-15T07:18:23;3.80;99.90
21393;DHT22;10857;52.228;21.026;2023-03-15T07:20:57;4.00;99.90
21393;DHT22;10857;52.228;21.026;2023-03-15T07:23:25;4.10;99.90
21393;DHT22;10857;52.228;21.026;2023-03-15T07:25:53;4.20;99.90
21393;DHT22;10857;52.228;21.026;2023-03-15T07:28:23;4.10;99.90
21393;DHT22;10857;52.228;21.026;2023-03-15T07:31:00;4.10;99.90
21393;DHT22;10857;52.228;21.026;2023-03-15T07:33:29;4.10;99.90
21393;DHT22;10857;52.228;21.026;2023-03-15T07:35:57;3.90;99.90
21393;DHT22;10857;52.228;21.026;2023-03-15T07:38:26;3.90;99.90
21393;DHT22;10857;52.228;21.026;2023-03-15T07:40:55;4.00;99.90
21393;DHT22;10857;52.228;21.026;2023-03-15T07:43:22;4.00;99.90
21393;DHT22;10857;52.228;21.026;2023-03-15T07:45:57;4.00;99.90
21393;DHT22;10857;52.228;21.026;2023-03-15T07:48:24;4.00;99.90
21393;DHT22;10857;52.228;21.026;2023-03-15T07:50:51;4.00;99.90
21393;DHT22;10857;52.228;21.026;2023-03-15T07:53:18;3.90;99.90
21393;DHT22;10857;52.228;21.026;2023-03-15T07:55:46;3.90;99.90
21393;DHT22;10857;52.228;21.026;2023-03-15T07:58:14;3.80;99.90
21393;DHT22;10857;52.228;21.026;2023-03-15T08:00:41;3.80;99.90
21393;DHT22;10857;52.228;21.026;2023-03-15T08:03:08;3.90;99.90
21393;DHT22;10857;52.228;21.026;2023-03-15T08:05:35;3.80;99.90
21393;DHT22;10857;52.228;21.026;2023-03-15T08:08:03;3.90;99.90
21393;DHT22;10857;52.228;21.026;2023-03-15T08:10:30;3.90;99.90
21393;DHT22;10857;52.228;21.026;2023-03-15T08:12:57;3.90;99.90
21393;DHT22;10857;52.228;21.026;2023-03-15T08:15:24;4.10;99.90
21393;DHT22;10857;52.228;21.026;2023-03-15T08:17:51;4.00;99.90
21393;DHT22;10857;52.228;21.026;2023-03-15T08:20:18;4.10;99.90
21393;DHT22;10857;52.228;21.026;2023-03-15T08:22:47;4.10;99.90
21393;DHT22;10857;52.228;21.026;2023-03-15T08:25:17;4.10;99.90
21393;DHT22;10857;52.228;21.026;2023-03-15T08:27:44;4.00;99.90
21393;DHT22;10857;52.228;21.026;2023-03-15T08:30:13;4.10;99.90
21393;DHT22;10857;52.228;21.026;2023-03-15T08:32:41;4.20;99.90
21393;DHT22;10857;52.228;21.026;2023-03-15T08:35:10;4.20;99.90
21393;DHT22;10857;52.228;21.026;2023-03-15T08:37:42;4.30;99.90
21393;DHT22;10857;52.228;21.026;2023-03-15T08:40:15;4.40;99.90
21393;DHT22;10857;52.228;21.026;2023-03-15T08:42:45;4.30;99.90
21393;DHT22;10857;52.228;21.026;2023-03-15T08:45:12;4.50;99.90
21393;DHT22;10857;52.228;21.026;2023-03-15T08:47:39;4.40;99.90
21393;DHT22;10857;52.228;21.026;2023-03-15T08:50:09;4.40;99.90
21393;DHT22;10857;52.228;21.026;2023-03-15T08:52:37;4.50;99.90
21393;DHT22;10857;52.228;21.026;2023-03-15T08:55:05;4.60;99.90
21393;DHT22;10857;52.228;21.026;2023-03-15T08:57:32;4.60;99.90
21393;DHT22;10857;52.228;21.026;2023-03-15T09:00:01;4.50;99.90
21393;DHT22;10857;52.228;21.026;2023-03-15T09:02:33;4.70;99.90
21393;DHT22;10857;52.228;21.026;2023-03-15T09:05:00;4.60;99.90
21393;DHT22;10857;52.228;21.026;2023-03-15T09:07:27;4.30;99.90
21393;DHT22;10857;52.228;21.026;2023-03-15T09:09:54;4.20;99.90
21393;DHT22;10857;52.228;21.026;2023-03-15T09:12:23;4.20;99.90
21393;DHT22;10857;52.228;21.026;2023-03-15T09:14:50;4.50;99.90
21393;DHT22;10857;52.228;21.026;2023-03-15T09:17:17;4.60;99.90
21393;DHT22;10857;52.228;21.026;2023-03-15T09:19:44;4.70;99.90
21393;DHT22;10857;52.228;21.026;2023-03-15T09:22:11;4.70;99.90
21393;DHT22;10857;52.228;21.026;2023-03-15T09:24:49;4.80;99.90
21393;DHT22;10857;52.228;21.026;2023-03-15T09:27:18;5.00;99.90
21393;DHT22;10857;52.228;21.026;2023-03-15T09:29:45;4.90;99.90
21393;DHT22;10857;52.228;21.026;2023-03-15T09:32:12;4.90;99.90
21393;DHT22;10857;52.228;21.026;2023-03-15T09:34:39;5.00;99.90
21393;DHT22;10857;52.228;21.026;2023-03-15T09:37:08;5.00;99.90
21393;DHT22;10857;52.228;21.026;2023-03-15T09:39:35;4.90;99.90
21393;DHT22;10857;52.228;21.026;2023-03-15T09:42:03;5.00;99.90
21393;DHT22;10857;52.228;21.026;2023-03-15T09:44:45;5.10;99.90
21393;DHT22;10857;52.228;21.026;2023-03-15T09:50:19;5.30;99.90
21393;DHT22;10857;52.228;21.026;2023-03-15T09:52:55;5.20;99.90
21393;DHT22;10857;52.228;21.026;2023-03-15T09:55:26;5.00;99.90
21393;DHT22;10857;52.228;21.026;2023-03-15T09:58:01;4.80;99.90
21393;DHT22;10857;52.228;21.026;2023-03-15T10:00:51;4.60;99.90
21393;DHT22;10857;52.228;21.026;2023-03-15T10:06:14;4.80;99.90
21393;DHT22;10857;52.228;21.026;2023-03-15T10:08:42;4.90;99.90
21393;DHT22;10857;52.228;21.026;2023-03-15T10:16:43;5.10;99.90
21393;DHT22;10857;52.228;21.026;2023-03-15T10:19:34;5.10;99.90
21393;DHT22;10857;52.228;21.026;2023-03-15T10:25:17;5.10;99.90
21393;DHT22;10857;52.228;21.026;2023-03-15T10:27:51;5.30;99.90
21393;DHT22;10857;52.228;21.026;2023-03-15T10:30:25;5.20;99.90
21393;DHT22;10857;52.228;21.026;2023-03-15T10:33:05;5.10;99.90
21393;DHT22;10857;52.228;21.026;2023-03-15T10:35:34;5.20;99.90
21393;DHT22;10857;52.228;21.026;2023-03-15T10:38:02;5.40;99.90
21393;DHT22;10857;52.228;21.026;2023-03-15T10:40:58;5.30;99.90
21393;DHT22;10857;52.228;21.026;2023-03-15T10:43:30;5.10;99.90
21393;DHT22;10857;52.228;21.026;2023-03-15T10:46:01;5.30;99.90
21393;DHT22;10857;52.228;21.026;2023-03-15T10:48:36;5.30;99.90
21393;DHT22;10857;52.228;21.026;2023-03-15T10:53:55;5.60;99.90
21393;DHT22;10857;52.228;21.026;2023-03-15T10:56:25;5.80;99.90
21393;DHT22;10857;52.228;21.026;2023-03-15T10:58:54;5.80;99.90
21393;DHT22;10857;52.228;21.026;2023-03-15T11:01:37;5.30;99.90
21393;DHT22;10857;52.228;21.026;2023-03-15T11:04:16;5.40;99.90
21393;DHT22;10857;52.228;21.026;2023-03-15T11:06:51;5.40;99.90
21393;DHT22;10857;52.228;21.026;2023-03-15T11:09:26;5.50;99.90
21393;DHT22;10857;52.228;21.026;2023-03-15T11:12:05;5.60;99.90
21393;DHT22;10857;52.228;21.026;2023-03-15T11:14:41;5.70;99.90
21393;DHT22;10857;52.228;21.026;2023-03-15T11:17:23;5.70;99.90
21393;DHT22;10857;52.228;21.026;2023-03-15T11:19:56;5.60;99.90
21393;DHT22;10857;52.228;21.026;2023-03-15T11:22:25;5.80;99.90
21393;DHT22;10857;52.228;21.026;2023-03-15T11:24:52;5.60;99.90
21393;DHT22;10857;52.228;21.026;2023-03-15T11:27:24;5.60;99.90
21393;DHT22;10857;52.228;21.026;2023-03-15T11:29:58;5.60;99.90
21393;DHT22;10857;52.228;21.026;2023-03-15T11:32:30;5.80;99.90
21393;DHT22;10857;52.228;21.026;2023-03-15T11:35:13;5.70;99.90
21393;DHT22;10857;52.228;21.026;2023-03-15T11:37:56;5.70;99.90
21393;DHT22;10857;52.228;21.026;2023-03-15T11:40:43;5.70;99.90
21393;DHT22;10857;52.228;21.026;2023-03-15T11:45:59;5.80;99.90
21393;DHT22;10857;52.228;21.026;2023-03-15T11:49:16;5.70;99.90
21393;DHT22;10857;52.228;21.026;2023-03-15T11:51:45;5.90;99.90
21393;DHT22;10857;52.228;21.026;2023-03-15T11:54:14;6.10;99.90
21393;DHT22;10857;52.228;21.026;2023-03-15T11:56:51;6.10;99.90
21393;DHT22;10857;52.228;21.026;2023-03-15T11:59:33;6.10;99.90
21393;DHT22;10857;52.228;21.026;2023-03-15T12:20:20;5.90;99.90
21393;DHT22;10857;52.228;21.026;2023-03-15T12:23:04;6.00;99.90
21393;DHT22;10857;52.228;21.026;2023-03-15T12:25:38;6.00;99.90
21393;DHT22;10857;52.228;21.026;2023-03-15T12:28:36;6.20;99.90
21393;DHT22;10857;52.228;21.026;2023-03-15T12:31:06;5.90;99.90
21393;DHT22;10857;52.228;21.026;2023-03-15T12:33:53;5.80;99.90
21393;DHT22;10857;52.228;21.026;2023-03-15T12:36:37;5.90;99.90
21393;DHT22;10857;52.228;21.026;2023-03-15T12:41:48;5.90;99.90
21393;DHT22;10857;52.228;21.026;2023-03-15T12:47:02;5.90;99.90
21393;DHT22;10857;52.228;21.026;2023-03-15T12:49:32;5.90;99.90
21393;DHT22;10857;52.228;21.026;2023-03-15T12:52:24;5.80;99.90
21393;DHT22;10857;52.228;21.026;2023-03-15T12:55:03;5.80;99.90
21393;DHT22;10857;52.228;21.026;2023-03-15T12:57:49;6.00;99.90
21393;DHT22;10857;52.228;21.026;2023-03-15T13:00:26;6.20;99.90
21393;DHT22;10857;52.228;21.026;2023-03-15T13:03:03;6.00;99.90
21393;DHT22;10857;52.228;21.026;2023-03-15T13:05:34;6.10;99.90
21393;DHT22;10857;52.228;21.026;2023-03-15T13:08:09;6.10;99.90
21393;DHT22;10857;52.228;21.026;2023-03-15T13:11:34;6.00;99.90
21393;DHT22;10857;52.228;21.026;2023-03-15T13:20:23;5.90;99.90
21393;DHT22;10857;52.228;21.026;2023-03-15T13:23:12;6.00;99.90
21393;DHT22;10857;52.228;21.026;2023-03-15T13:28:20;6.00;99.90
21393;DHT22;10857;52.228;21.026;2023-03-15T13:30:53;6.00;99.90
21393;DHT22;10857;52.228;21.026;2023-03-15T13:33:31;6.10;99.90
21393;DHT22;10857;52.228;21.026;2023-03-15T13:36:01;6.10;99.90
21393;DHT22;10857;52.228;21.026;2023-03-15T13:38:30;6.10;99.90
21393;DHT22;10857;52.228;21.026;2023-03-15T13:41:00;6.00;99.90
21393;DHT22;10857;52.228;21.026;2023-03-15T13:43:46;5.80;99.90
21393;DHT22;10857;52.228;21.026;2023-03-15T13:46:16;5.90;99.90
21393;DHT22;10857;52.228;21.026;2023-03-15T13:48:45;5.80;99.90
21393;DHT22;10857;52.228;21.026;2023-03-15T13:51:27;5.90;99.90
21393;DHT22;10857;52.228;21.026;2023-03-15T13:54:10;5.90;99.90
21393;DHT22;10857;52.228;21.026;2023-03-15T13:57:05;6.00;99.90
21393;DHT22;10857;52.228;21.026;2023-03-15T14:02:29;6.10;99.90
21393;DHT22;10857;52.228;21.026;2023-03-15T14:05:04;6.10;99.90
21393;DHT22;10857;52.228;21.026;2023-03-15T14:07:42;6.10;99.90
21393;DHT22;10857;52.228;21.026;2023-03-15T14:10:31;6.10;99.90
21393;DHT22;10857;52.228;21.026;2023-03-15T14:13:20;6.10;99.90
21393;DHT22;10857;52.228;21.026;2023-03-15T14:15:49;6.10;99.90
21393;DHT22;10857;52.228;21.026;2023-03-15T14:18:22;6.10;99.90
21393;DHT22;10857;52.228;21.026;2023-03-15T14:21:17;6.10;99.90
21393;DHT22;10857;52.228;21.026;2023-03-15T14:23:47;6.20;99.90
21393;DHT22;10857;52.228;21.026;2023-03-15T14:26:20;6.30;99.90
21393;DHT22;10857;52.228;21.026;2023-03-15T14:31:26;6.30;99.90
21393;DHT22;10857;52.228;21.026;2023-03-15T14:33:58;6.20;99.90
21393;DHT22;10857;52.228;21.026;2023-03-15T14:36:39;5.90;99.90
21393;DHT22;10857;52.228;21.026;2023-03-15T14:41:52;5.80;99.90
21393;DHT22;10857;52.228;21.026;2023-03-15T14:44:21;5.80;99.90
21393;DHT22;10857;52.228;21.026;2023-03-15T14:46:54;5.80;99.90
21393;DHT22;10857;52.228;21.026;2023-03-15T14:49:25;5.80;99.90
21393;DHT22;10857;52.228;21.026;2023-03-15T14:52:00;5.90;99.90
21393;DHT22;10857;52.228;21.026;2023-03-15T14:54:36;5.80;99.90
21393;DHT22;10857;52.228;21.026;2023-03-15T14:57:13;5.90;99.90
21393;DHT22;10857;52.228;21.026;2023-03-15T14:59:42;5.90;99.90
21393;DHT22;10857;52.228;21.026;2023-03-15T15:02:15;5.90;99.90
21393;DHT22;10857;52.228;21.026;2023-03-15T15:04:45;6.00;99.90
21393;DHT22;10857;52.228;21.026;2023-03-15T15:07:14;6.00;99.90
21393;DHT22;10857;52.228;21.026;2023-03-15T15:09:48;5.90;99.90
21393;DHT22;10857;52.228;21.026;2023-03-15T17:00:34;4.90;99.90
21393;DHT22;10857;52.228;21.026;2023-03-15T17:03:01;4.90;99.90
21393;DHT22;10857;52.228;21.026;2023-03-15T17:05:31;5.00;99.90
21393;DHT22;10857;52.228;21.026;2023-03-15T17:07:58;4.90;99.90
21393;DHT22;10857;52.228;21.026;2023-03-15T17:10:28;4.90;99.90
21393;DHT22;10857;52.228;21.026;2023-03-15T17:13:00;5.00;99.90
21393;DHT22;10857;52.228;21.026;2023-03-15T17:15:29;5.00;99.90
21393;DHT22;10857;52.228;21.026;2023-03-15T17:17:56;4.90;99.90
21393;DHT22;10857;52.228;21.026;2023-03-15T17:20:27;5.00;99.90
21393;DHT22;10857;52.228;21.026;2023-03-15T17:23:00;5.00;99.90
21393;DHT22;10857;52.228;21.026;2023-03-15T17:25:31;5.00;99.90
21393;DHT22;10857;52.228;21.026;2023-03-15T17:27:59;5.00;99.90
21393;DHT22;10857;52.228;21.026;2023-03-15T17:30:28;4.90;99.90
21393;DHT22;10857;52.228;21.026;2023-03-15T17:32:56;4.90;99.90
21393;DHT22;10857;52.228;21.026;2023-03-15T17:35:30;4.80;99.90
21393;DHT22;10857;52.228;21.026;2023-03-15T17:37:59;4.80;99.90
21393;DHT22;10857;52.228;21.026;2023-03-15T17:40:29;4.80;99.90
21393;DHT22;10857;52.228;21.026;2023-03-15T17:42:58;4.80;99.90
21393;DHT22;10857;52.228;21.026;2023-03-15T17:45:28;4.80;99.90
21393;DHT22;10857;52.228;21.026;2023-03-15T17:47:56;4.70;99.90
21393;DHT22;10857;52.228;21.026;2023-03-15T17:50:26;4.70;99.90
21393;DHT22;10857;52.228;21.026;2023-03-15T17:52:55;4.70;99.90
21393;DHT22;10857;52.228;21.026;2023-03-15T17:55:25;4.70;99.90
21393;DHT22;10857;52.228;21.026;2023-03-15T17:57:53;4.70;99.90
21393;DHT22;10857;52.228;21.026;2023-03-15T18:00:22;4.60;99.90
21393;DHT22;10857;52.228;21.026;2023-03-15T18:02:51;4.60;99.90
21393;DHT22;10857;52.228;21.026;2023-03-15T18:05:24;4.60;99.90
21393;DHT22;10857;52.228;21.026;2023-03-15T18:07:52;4.60;99.90
21393;DHT22;10857;52.228;21.026;2023-03-15T18:10:30;4.60;99.90
21393;DHT22;10857;52.228;21.026;2023-03-15T18:12:59;4.50;99.90
21393;DHT22;10857;52.228;21.026;2023-03-15T18:15:26;4.50;99.90
21393;DHT22;10857;52.228;21.026;2023-03-15T18:17:53;4.50;99.90
21393;DHT22;10857;52.228;21.026;2023-03-15T18:20:20;4.50;99.90
21393;DHT22;10857;52.228;21.026;2023-03-15T18:22:50;4.50;99.90
21393;DHT22;10857;52.228;21.026;2023-03-15T18:27:47;4.50;99.90
21393;DHT22;10857;52.228;21.026;2023-03-15T18:30:17;4.50;99.90
21393;DHT22;10857;52.228;21.026;2023-03-15T18:32:44;4.50;99.90
21393;DHT22;10857;52.228;21.026;2023-03-15T18:35:24;4.40;99.90
21393;DHT22;10857;52.228;21.026;2023-03-15T18:37:51;4.50;99.90
21393;DHT22;10857;52.228;21.026;2023-03-15T18:40:20;4.40;99.90
21393;DHT22;10857;52.228;21.026;2023-03-15T18:42:47;4.40;99.90
21393;DHT22;10857;52.228;21.026;2023-03-15T18:45:17;4.30;99.90
21393;DHT22;10857;52.228;21.026;2023-03-15T18:47:45;4.30;99.90
21393;DHT22;10857;52.228;21.026;2023-03-15T18:50:13;4.30;99.90
21393;DHT22;10857;52.228;21.026;2023-03-15T18:52:40;4.30;99.90
21393;DHT22;10857;52.228;21.026;2023-03-15T18:55:10;4.30;99.90
21393;DHT22;10857;52.228;21.026;2023-03-15T19:02:26;4.20;99.90
21393;DHT22;10857;52.228;21.026;2023-03-15T19:04:59;4.20;99.90
21393;DHT22;10857;52.228;21.026;2023-03-15T19:07:26;4.20;99.90
21393;DHT22;10857;52.228;21.026;2023-03-15T19:09:53;4.20;99.90